Pitman, Pennsylvania
Current Conditions -  °F | °C
As of 4:58 PM on Friday 28 Nov 2014 (Local Time) from KMUI Reporting Station
Clear Clear  
Wind Chill: 31°   Ceiling: Unl
Heat Index: 31°   Visibility: 10mi
Dew Point: 13°   Wind: 3mph
Humidity: 48%   Direction: 270°W
Pressure: 30.24"   Gusts: NA
Location:  40.71°N, 76.52°W
Report Text: KMUI 282158Z AUTO 27003KT 10SM CLR M01/M10 A3024 RMK AO2 SLP249 T10061103 $
Loading
Personal Weather Stations






























Interactive Weather Map New forecast layout! Learn more

10-Day Weather Forecast

Advertisements
Track Severe Weather on mobile